This is the latest recevied weather packets stored in our database for station/object K5KHP. If no packets are shown the sender has not sent any weather packets the latest 10 day(s).
| Time | Temp. | Humidity | Pressure | Rain* | Wind** | Luminosity | Snow |
|---|---|---|---|---|---|---|---|
| 1777510442 | 20° C | 68% | 1013.7 hPa | 0 mm | - | 140 W/m² | - |
| 1777510137 | 20° C | 67% | 1013.9 hPa | 0 mm | - | 156 W/m² | - |
| 1777509835 | 20° C | 68% | 1013.9 hPa | 0 mm | - | 166 W/m² | - |
| 1777509530 | 20° C | 68% | 1013.9 hPa | 0 mm | - | 174 W/m² | - |
| 1777509228 | 20° C | 68% | 1013.9 hPa | 0 mm | - | 187 W/m² | - |
| 1777508925 | 20° C | 66% | 1014.1 hPa | 0 mm | - | 200 W/m² | - |
| 1777508621 | 20° C | 67% | 1013.9 hPa | 0 mm | - | 224 W/m² | - |
| 1777508319 | 20° C | 66% | 1013.8 hPa | 0 mm | - | 246 W/m² | - |
| 1777508016 | 20° C | 64% | 1014.1 hPa | 0 mm | - | 246 W/m² | - |
| 1777507712 | 20.56° C | 60% | 1013.7 hPa | 0 mm | - | 259 W/m² | - |
| 1777507409 | 20.56° C | 58% | 1013.9 hPa | 0 mm | - | 270 W/m² | - |
| 1777507106 | 21.11° C | 56% | 1014 hPa | 0 mm | - | 284 W/m² | - |
| 1777506804 | 20.56° C | 58% | 1013.6 hPa | 0 mm | - | 304 W/m² | - |
| 1777506501 | 21.11° C | 58% | 1013.6 hPa | 0 mm | - | 308 W/m² | - |
| 1777506196 | 21.11° C | 56% | 1013.6 hPa | 0 mm | - | 331 W/m² | - |
| 1777505893 | 21.11° C | 59% | 1013.6 hPa | 0 mm | - | 334 W/m² | - |
| 1777505589 | 21.67° C | 57% | 1013.7 hPa | 0 mm | - | 328 W/m² | - |
| 1777505285 | 21.67° C | 57% | 1013.5 hPa | 0 mm | - | 351 W/m² | - |
| 1777504982 | 21.11° C | 63% | 1013.7 hPa | 0 mm | - | 348 W/m² | - |
| 1777504679 | 21.11° C | 63% | 1013.8 hPa | 0 mm | - | 351 W/m² | - |
| 1777504376 | 21.11° C | 63% | 1013.7 hPa | 0 mm | - | 368 W/m² | - |
| 1777504076 | 21.11° C | 62% | 1013.9 hPa | 0 mm | - | 364 W/m² | - |
| 1777503772 | 21.11° C | 62% | 1013.8 hPa | 0 mm | - | 386 W/m² | - |
| 1777503469 | 21.11° C | 61% | 1014 hPa | 0 mm | - | 390 W/m² | - |
| 1777503164 | 20.56° C | 62% | 1014.1 hPa | 0 mm | - | 391 W/m² | - |
* Rain latest hour (hover to see other rain measurements)
** Current wind speed in m/s (hover to see current wind gust speed)